Aérodrome :
LOGIN :

S'inscrire | Disclaimer

   EN    FR    IT 

 










Légende :    VFR   VFR Marginal   IFR   IFR Intensif   IFR Très Intensif
Visi : 
Plafond : 
>= 8 km
>= 3000ft
5 à 8 km
1000 à 3000 ft
1500m à 5 km
500 à 1000 ft
800 à 1500m
200 à 500 ft
< 800m
< 200 ft
Symboles :   Orages  Brouillard  Fortes neiges  Fortes précipitations  Vent > 20 kt
SIGMETs :   Divers  Orages  Givrage  Turbulence  Onde Orograph.  Cendres Volcan.






- Altitude de l'aérodrome : 230 ft


ETHB - Buckeburg Army

DERNIER METAR :
  • 250626Z 34004KT 9000 OVC014 03/M00 Q1033 GRN WHT TEMPO GRN

METARs EXPIRÉS :
  • 250520Z 30004KT 7000 OVC017 03/01 Q1033 WHT WHT
  • 250500Z 30003KT 7000 OVC018 03/01 Q1033 WHT
  • 250420Z AUTO 30003KT 6000 // ////// 03/01 Q1033 ///

TAF AMD TAF ETHB
Valide du 25 à 06h jusqu'au 25 à 15h UTC


250627Z 2506/2515 30004KT 9000 NSW BKN020
TEMPO 2506/2509 28003KT 7000 NSW BKN012



MET'MAP, la Météo Aéronautique d'un coup d'oeil ! - Copyright ORBIFLY Décembre 2007 - Disclaimer

ORBIFLY MET'MAP TEAM :

Programmation & Développement : Alexandra Zaïnal
Sur une idée originale de : Baudouin d'Aumeries
Soutien technique & logistique : Manuel Goepfert
Assistance : Marc-Olivier Méhu

Contact : metmap@orbifly.com




SOURCES & CREDITS :

   NOAA